sensor_id;sensor_type;location;lat;lon;timestamp;P1;durP1;ratioP1;P2;durP2;ratioP2
42194;SDS011;27863;49.440;11.102;2023-10-19T00:00:37;18.77;;;16.93;;
42194;SDS011;27863;49.440;11.102;2023-10-19T00:03:44;19.63;;;16.50;;
42194;SDS011;27863;49.440;11.102;2023-10-19T00:06:48;18.67;;;16.73;;
42194;SDS011;27863;49.440;11.102;2023-10-19T00:09:49;18.70;;;15.20;;
42194;SDS011;27863;49.440;11.102;2023-10-19T00:12:52;20.03;;;16.40;;
42194;SDS011;27863;49.440;11.102;2023-10-19T00:16:00;19.00;;;17.30;;
42194;SDS011;27863;49.440;11.102;2023-10-19T00:19:00;19.13;;;17.23;;
42194;SDS011;27863;49.440;11.102;2023-10-19T00:22:03;18.73;;;16.73;;
42194;SDS011;27863;49.440;11.102;2023-10-19T00:25:08;22.47;;;16.93;;
42194;SDS011;27863;49.440;11.102;2023-10-19T00:28:13;19.43;;;17.57;;
42194;SDS011;27863;49.440;11.102;2023-10-19T00:31:15;20.63;;;18.47;;
42194;SDS011;27863;49.440;11.102;2023-10-19T00:34:16;18.17;;;16.63;;
42194;SDS011;27863;49.440;11.102;2023-10-19T00:37:17;19.67;;;17.73;;
42194;SDS011;27863;49.440;11.102;2023-10-19T00:40:21;18.97;;;17.27;;
42194;SDS011;27863;49.440;11.102;2023-10-19T00:43:34;21.30;;;17.90;;
42194;SDS011;27863;49.440;11.102;2023-10-19T00:46:48;19.10;;;16.37;;
42194;SDS011;27863;49.440;11.102;2023-10-19T00:50:03;21.03;;;18.97;;
42194;SDS011;27863;49.440;11.102;2023-10-19T00:53:05;19.43;;;17.57;;
42194;SDS011;27863;49.440;11.102;2023-10-19T00:56:08;19.97;;;18.20;;
42194;SDS011;27863;49.440;11.102;2023-10-19T00:59:09;20.03;;;17.93;;
42194;SDS011;27863;49.440;11.102;2023-10-19T01:02:15;19.73;;;17.93;;
42194;SDS011;27863;49.440;11.102;2023-10-19T01:05:28;19.67;;;17.60;;
42194;SDS011;27863;49.440;11.102;2023-10-19T01:08:39;19.37;;;17.67;;
42194;SDS011;27863;49.440;11.102;2023-10-19T01:11:42;19.07;;;17.37;;
42194;SDS011;27863;49.440;11.102;2023-10-19T01:18:12;21.57;;;19.57;;
42194;SDS011;27863;49.440;11.102;2023-10-19T01:21:14;22.33;;;18.67;;
42194;SDS011;27863;49.440;11.102;2023-10-19T01:24:19;21.87;;;19.83;;
42194;SDS011;27863;49.440;11.102;2023-10-19T01:27:39;20.27;;;18.47;;
42194;SDS011;27863;49.440;11.102;2023-10-19T01:30:40;19.00;;;17.40;;
42194;SDS011;27863;49.440;11.102;2023-10-19T01:33:43;20.97;;;18.63;;
42194;SDS011;27863;49.440;11.102;2023-10-19T01:36:44;21.40;;;19.20;;
42194;SDS011;27863;49.440;11.102;2023-10-19T01:39:44;22.53;;;20.33;;
42194;SDS011;27863;49.440;11.102;2023-10-19T01:42:46;28.30;;;21.23;;
42194;SDS011;27863;49.440;11.102;2023-10-19T01:45:47;22.17;;;20.17;;
42194;SDS011;27863;49.440;11.102;2023-10-19T01:48:48;22.77;;;20.77;;
42194;SDS011;27863;49.440;11.102;2023-10-19T01:51:54;21.33;;;19.10;;
42194;SDS011;27863;49.440;11.102;2023-10-19T01:54:55;21.23;;;19.33;;
42194;SDS011;27863;49.440;11.102;2023-10-19T01:57:59;20.93;;;18.93;;
42194;SDS011;27863;49.440;11.102;2023-10-19T02:01:00;22.60;;;20.30;;
42194;SDS011;27863;49.440;11.102;2023-10-19T02:04:01;21.97;;;19.87;;
42194;SDS011;27863;49.440;11.102;2023-10-19T02:07:03;26.33;;;20.40;;
42194;SDS011;27863;49.440;11.102;2023-10-19T02:10:04;23.17;;;20.93;;
42194;SDS011;27863;49.440;11.102;2023-10-19T02:13:10;21.87;;;19.97;;
42194;SDS011;27863;49.440;11.102;2023-10-19T02:16:12;21.50;;;19.50;;
42194;SDS011;27863;49.440;11.102;2023-10-19T02:19:15;21.03;;;19.03;;
42194;SDS011;27863;49.440;11.102;2023-10-19T02:22:15;19.63;;;17.93;;
42194;SDS011;27863;49.440;11.102;2023-10-19T02:25:17;21.60;;;19.70;;
42194;SDS011;27863;49.440;11.102;2023-10-19T02:28:18;22.47;;;20.13;;
42194;SDS011;27863;49.440;11.102;2023-10-19T02:31:26;21.47;;;19.47;;
42194;SDS011;27863;49.440;11.102;2023-10-19T02:34:27;22.33;;;20.23;;
42194;SDS011;27863;49.440;11.102;2023-10-19T02:37:28;21.43;;;19.57;;
42194;SDS011;27863;49.440;11.102;2023-10-19T02:40:28;21.67;;;19.77;;
42194;SDS011;27863;49.440;11.102;2023-10-19T02:43:31;19.83;;;18.17;;
42194;SDS011;27863;49.440;11.102;2023-10-19T02:46:33;21.83;;;19.80;;
42194;SDS011;27863;49.440;11.102;2023-10-19T02:49:34;21.73;;;19.47;;
42194;SDS011;27863;49.440;11.102;2023-10-19T02:52:38;22.27;;;20.27;;
42194;SDS011;27863;49.440;11.102;2023-10-19T02:55:38;21.60;;;19.83;;
42194;SDS011;27863;49.440;11.102;2023-10-19T02:58:41;21.33;;;19.40;;
42194;SDS011;27863;49.440;11.102;2023-10-19T03:01:44;21.03;;;18.97;;
42194;SDS011;27863;49.440;11.102;2023-10-19T03:04:44;21.07;;;19.27;;
42194;SDS011;27863;49.440;11.102;2023-10-19T03:07:46;22.63;;;20.53;;
42194;SDS011;27863;49.440;11.102;2023-10-19T03:10:46;21.67;;;19.33;;
42194;SDS011;27863;49.440;11.102;2023-10-19T03:13:47;21.60;;;19.37;;
42194;SDS011;27863;49.440;11.102;2023-10-19T03:16:50;21.63;;;19.43;;
42194;SDS011;27863;49.440;11.102;2023-10-19T03:19:50;20.97;;;18.97;;
42194;SDS011;27863;49.440;11.102;2023-10-19T03:22:51;21.73;;;19.73;;
42194;SDS011;27863;49.440;11.102;2023-10-19T03:25:55;21.97;;;20.00;;
42194;SDS011;27863;49.440;11.102;2023-10-19T03:29:15;21.23;;;19.33;;
42194;SDS011;27863;49.440;11.102;2023-10-19T03:32:18;21.03;;;19.13;;
42194;SDS011;27863;49.440;11.102;2023-10-19T03:35:23;22.37;;;20.33;;
42194;SDS011;27863;49.440;11.102;2023-10-19T03:38:24;21.60;;;19.70;;
42194;SDS011;27863;49.440;11.102;2023-10-19T03:41:25;23.43;;;21.10;;
42194;SDS011;27863;49.440;11.102;2023-10-19T03:44:27;24.67;;;22.30;;
42194;SDS011;27863;49.440;11.102;2023-10-19T03:47:38;21.07;;;19.07;;
42194;SDS011;27863;49.440;11.102;2023-10-19T03:50:39;22.30;;;19.57;;
42194;SDS011;27863;49.440;11.102;2023-10-19T03:53:40;23.23;;;21.23;;
42194;SDS011;27863;49.440;11.102;2023-10-19T03:56:50;22.83;;;20.40;;
42194;SDS011;27863;49.440;11.102;2023-10-19T03:59:51;22.10;;;19.73;;
42194;SDS011;27863;49.440;11.102;2023-10-19T04:02:58;23.83;;;21.33;;
42194;SDS011;27863;49.440;11.102;2023-10-19T04:05:59;24.07;;;21.03;;
42194;SDS011;27863;49.440;11.102;2023-10-19T04:09:01;23.23;;;20.07;;
42194;SDS011;27863;49.440;11.102;2023-10-19T04:12:04;24.57;;;20.27;;
42194;SDS011;27863;49.440;11.102;2023-10-19T04:15:06;25.77;;;21.03;;
42194;SDS011;27863;49.440;11.102;2023-10-19T04:18:26;24.67;;;21.07;;
42194;SDS011;27863;49.440;11.102;2023-10-19T04:21:27;23.30;;;20.93;;
42194;SDS011;27863;49.440;11.102;2023-10-19T04:24:28;23.70;;;21.30;;
42194;SDS011;27863;49.440;11.102;2023-10-19T04:27:33;23.23;;;20.97;;
42194;SDS011;27863;49.440;11.102;2023-10-19T04:30:36;23.63;;;21.13;;
42194;SDS011;27863;49.440;11.102;2023-10-19T04:33:37;23.63;;;21.50;;
42194;SDS011;27863;49.440;11.102;2023-10-19T04:36:38;24.90;;;22.03;;
42194;SDS011;27863;49.440;11.102;2023-10-19T04:39:39;21.90;;;20.00;;
42194;SDS011;27863;49.440;11.102;2023-10-19T04:42:40;24.33;;;20.67;;
42194;SDS011;27863;49.440;11.102;2023-10-19T04:45:40;25.17;;;22.57;;
42194;SDS011;27863;49.440;11.102;2023-10-19T04:48:41;22.87;;;20.90;;
42194;SDS011;27863;49.440;11.102;2023-10-19T04:51:42;24.67;;;22.67;;
42194;SDS011;27863;49.440;11.102;2023-10-19T04:54:43;28.20;;;24.23;;
42194;SDS011;27863;49.440;11.102;2023-10-19T04:57:44;26.03;;;23.23;;
42194;SDS011;27863;49.440;11.102;2023-10-19T05:00:44;24.63;;;22.13;;
42194;SDS011;27863;49.440;11.102;2023-10-19T05:03:45;24.53;;;22.00;;
42194;SDS011;27863;49.440;11.102;2023-10-19T05:06:45;24.73;;;22.33;;
42194;SDS011;27863;49.440;11.102;2023-10-19T05:09:46;27.70;;;24.43;;
42194;SDS011;27863;49.440;11.102;2023-10-19T05:12:47;26.73;;;24.07;;
42194;SDS011;27863;49.440;11.102;2023-10-19T05:15:47;25.50;;;22.90;;
42194;SDS011;27863;49.440;11.102;2023-10-19T05:18:48;24.27;;;22.20;;
42194;SDS011;27863;49.440;11.102;2023-10-19T05:21:48;32.10;;;23.90;;
42194;SDS011;27863;49.440;11.102;2023-10-19T05:24:49;25.93;;;23.27;;
42194;SDS011;27863;49.440;11.102;2023-10-19T05:27:49;25.03;;;22.37;;
42194;SDS011;27863;49.440;11.102;2023-10-19T05:30:50;26.27;;;23.67;;
42194;SDS011;27863;49.440;11.102;2023-10-19T05:33:51;37.37;;;23.80;;
42194;SDS011;27863;49.440;11.102;2023-10-19T05:36:53;27.10;;;24.33;;
42194;SDS011;27863;49.440;11.102;2023-10-19T05:39:54;26.23;;;23.57;;
42194;SDS011;27863;49.440;11.102;2023-10-19T05:42:55;27.77;;;24.00;;
42194;SDS011;27863;49.440;11.102;2023-10-19T05:45:56;31.57;;;25.80;;
42194;SDS011;27863;49.440;11.102;2023-10-19T05:48:57;26.60;;;24.10;;
42194;SDS011;27863;49.440;11.102;2023-10-19T05:51:58;35.30;;;25.07;;
42194;SDS011;27863;49.440;11.102;2023-10-19T05:54:59;30.67;;;23.73;;
42194;SDS011;27863;49.440;11.102;2023-10-19T05:58:02;26.57;;;23.67;;
42194;SDS011;27863;49.440;11.102;2023-10-19T06:01:05;31.07;;;23.77;;
42194;SDS011;27863;49.440;11.102;2023-10-19T06:04:05;25.33;;;22.60;;
42194;SDS011;27863;49.440;11.102;2023-10-19T06:07:08;28.83;;;23.80;;
42194;SDS011;27863;49.440;11.102;2023-10-19T06:10:14;25.50;;;22.77;;
42194;SDS011;27863;49.440;11.102;2023-10-19T06:13:21;27.70;;;23.97;;
42194;SDS011;27863;49.440;11.102;2023-10-19T06:16:22;24.23;;;22.13;;
42194;SDS011;27863;49.440;11.102;2023-10-19T06:19:27;25.53;;;23.03;;
42194;SDS011;27863;49.440;11.102;2023-10-19T06:22:27;24.43;;;22.20;;
42194;SDS011;27863;49.440;11.102;2023-10-19T06:25:28;25.07;;;22.40;;
42194;SDS011;27863;49.440;11.102;2023-10-19T06:28:29;25.00;;;22.73;;
42194;SDS011;27863;49.440;11.102;2023-10-19T06:31:32;24.80;;;22.27;;
42194;SDS011;27863;49.440;11.102;2023-10-19T06:34:36;24.40;;;22.13;;
42194;SDS011;27863;49.440;11.102;2023-10-19T06:37:41;24.57;;;22.10;;
42194;SDS011;27863;49.440;11.102;2023-10-19T06:40:55;24.03;;;21.77;;
42194;SDS011;27863;49.440;11.102;2023-10-19T06:43:59;24.63;;;22.43;;
42194;SDS011;27863;49.440;11.102;2023-10-19T06:46:59;23.70;;;21.33;;
42194;SDS011;27863;49.440;11.102;2023-10-19T06:50:00;21.97;;;20.00;;
42194;SDS011;27863;49.440;11.102;2023-10-19T06:53:09;22.47;;;20.27;;
42194;SDS011;27863;49.440;11.102;2023-10-19T06:56:10;21.83;;;19.60;;
42194;SDS011;27863;49.440;11.102;2023-10-19T06:59:11;22.60;;;19.93;;
42194;SDS011;27863;49.440;11.102;2023-10-19T07:02:14;22.13;;;20.00;;
42194;SDS011;27863;49.440;11.102;2023-10-19T07:05:17;20.20;;;18.40;;
42194;SDS011;27863;49.440;11.102;2023-10-19T07:08:29;19.40;;;17.70;;
42194;SDS011;27863;49.440;11.102;2023-10-19T07:11:41;17.67;;;16.17;;
42194;SDS011;27863;49.440;11.102;2023-10-19T07:14:45;18.30;;;16.40;;
42194;SDS011;27863;49.440;11.102;2023-10-19T07:17:47;19.23;;;17.53;;
42194;SDS011;27863;49.440;11.102;2023-10-19T07:20:48;19.37;;;17.73;;
42194;SDS011;27863;49.440;11.102;2023-10-19T07:23:49;18.33;;;16.70;;
42194;SDS011;27863;49.440;11.102;2023-10-19T07:26:52;18.87;;;17.27;;
42194;SDS011;27863;49.440;11.102;2023-10-19T07:30:10;19.17;;;17.43;;
42194;SDS011;27863;49.440;11.102;2023-10-19T07:33:15;18.77;;;17.33;;
42194;SDS011;27863;49.440;11.102;2023-10-19T07:36:19;19.30;;;17.37;;
42194;SDS011;27863;49.440;11.102;2023-10-19T07:39:20;19.57;;;17.87;;
42194;SDS011;27863;49.440;11.102;2023-10-19T07:42:23;17.80;;;16.00;;
42194;SDS011;27863;49.440;11.102;2023-10-19T07:45:24;19.07;;;17.53;;
42194;SDS011;27863;49.440;11.102;2023-10-19T07:48:25;19.90;;;17.93;;
42194;SDS011;27863;49.440;11.102;2023-10-19T07:51:26;19.87;;;18.13;;
42194;SDS011;27863;49.440;11.102;2023-10-19T07:54:27;19.53;;;17.70;;
42194;SDS011;27863;49.440;11.102;2023-10-19T07:57:27;18.50;;;16.93;;
42194;SDS011;27863;49.440;11.102;2023-10-19T08:00:29;19.13;;;17.63;;
42194;SDS011;27863;49.440;11.102;2023-10-19T08:03:31;19.03;;;17.07;;
42194;SDS011;27863;49.440;11.102;2023-10-19T08:06:31;18.40;;;16.63;;
42194;SDS011;27863;49.440;11.102;2023-10-19T08:09:32;15.67;;;14.37;;
42194;SDS011;27863;49.440;11.102;2023-10-19T08:12:35;14.60;;;13.40;;
42194;SDS011;27863;49.440;11.102;2023-10-19T08:15:36;13.45;;;12.45;;
42194;SDS011;27863;49.440;11.102;2023-10-19T08:18:37;13.98;;;12.88;;
42194;SDS011;27863;49.440;11.102;2023-10-19T08:21:37;14.65;;;13.52;;
42194;SDS011;27863;49.440;11.102;2023-10-19T08:24:38;15.38;;;14.13;;
42194;SDS011;27863;49.440;11.102;2023-10-19T08:27:38;16.40;;;15.05;;
42194;SDS011;27863;49.440;11.102;2023-10-19T08:30:44;15.30;;;14.05;;
42194;SDS011;27863;49.440;11.102;2023-10-19T08:33:56;16.80;;;15.40;;
42194;SDS011;27863;49.440;11.102;2023-10-19T08:36:57;18.17;;;16.33;;
42194;SDS011;27863;49.440;11.102;2023-10-19T08:39:57;17.02;;;15.63;;
42194;SDS011;27863;49.440;11.102;2023-10-19T08:42:59;16.88;;;15.27;;
42194;SDS011;27863;49.440;11.102;2023-10-19T08:45:59;16.98;;;15.38;;
42194;SDS011;27863;49.440;11.102;2023-10-19T08:49:00;17.48;;;16.00;;
42194;SDS011;27863;49.440;11.102;2023-10-19T08:52:01;16.42;;;14.93;;
42194;SDS011;27863;49.440;11.102;2023-10-19T08:55:04;17.50;;;15.52;;
42194;SDS011;27863;49.440;11.102;2023-10-19T08:58:05;16.73;;;14.57;;
42194;SDS011;27863;49.440;11.102;2023-10-19T09:01:06;16.73;;;15.30;;
42194;SDS011;27863;49.440;11.102;2023-10-19T09:04:06;16.85;;;15.55;;
42194;SDS011;27863;49.440;11.102;2023-10-19T09:07:07;16.65;;;15.35;;
42194;SDS011;27863;49.440;11.102;2023-10-19T09:10:10;16.85;;;15.45;;
42194;SDS011;27863;49.440;11.102;2023-10-19T09:13:15;18.90;;;15.35;;
42194;SDS011;27863;49.440;11.102;2023-10-19T09:16:19;16.05;;;14.32;;
42194;SDS011;27863;49.440;11.102;2023-10-19T09:19:34;16.80;;;15.40;;
42194;SDS011;27863;49.440;11.102;2023-10-19T09:22:36;15.35;;;14.10;;
42194;SDS011;27863;49.440;11.102;2023-10-19T09:25:44;17.10;;;15.70;;
42194;SDS011;27863;49.440;11.102;2023-10-19T09:28:48;16.20;;;14.77;;
42194;SDS011;27863;49.440;11.102;2023-10-19T09:31:53;14.60;;;13.40;;
42194;SDS011;27863;49.440;11.102;2023-10-19T09:34:56;15.55;;;14.20;;
42194;SDS011;27863;49.440;11.102;2023-10-19T09:37:57;15.95;;;14.75;;
42194;SDS011;27863;49.440;11.102;2023-10-19T09:40:59;16.60;;;14.80;;
42194;SDS011;27863;49.440;11.102;2023-10-19T09:44:04;17.52;;;16.15;;
42194;SDS011;27863;49.440;11.102;2023-10-19T09:47:11;16.65;;;15.15;;
42194;SDS011;27863;49.440;11.102;2023-10-19T09:50:13;16.95;;;15.48;;
42194;SDS011;27863;49.440;11.102;2023-10-19T09:53:14;17.27;;;15.73;;
42194;SDS011;27863;49.440;11.102;2023-10-19T09:56:21;17.25;;;15.82;;
42194;SDS011;27863;49.440;11.102;2023-10-19T09:59:34;17.60;;;16.20;;
42194;SDS011;27863;49.440;11.102;2023-10-19T10:02:44;16.17;;;14.98;;
42194;SDS011;27863;49.440;11.102;2023-10-19T10:05:47;15.18;;;13.88;;
42194;SDS011;27863;49.440;11.102;2023-10-19T10:08:52;16.60;;;15.00;;
42194;SDS011;27863;49.440;11.102;2023-10-19T10:11:53;15.05;;;13.77;;
42194;SDS011;27863;49.440;11.102;2023-10-19T10:17:58;16.75;;;15.25;;
42194;SDS011;27863;49.440;11.102;2023-10-19T10:21:04;15.05;;;13.85;;
42194;SDS011;27863;49.440;11.102;2023-10-19T10:24:10;16.27;;;14.88;;
42194;SDS011;27863;49.440;11.102;2023-10-19T10:27:12;16.05;;;14.55;;
42194;SDS011;27863;49.440;11.102;2023-10-19T10:30:18;14.13;;;13.00;;
42194;SDS011;27863;49.440;11.102;2023-10-19T10:33:37;15.35;;;14.07;;
42194;SDS011;27863;49.440;11.102;2023-10-19T10:36:57;14.20;;;12.80;;
42194;SDS011;27863;49.440;11.102;2023-10-19T10:40:02;16.60;;;12.88;;
42194;SDS011;27863;49.440;11.102;2023-10-19T10:43:06;15.20;;;13.80;;
42194;SDS011;27863;49.440;11.102;2023-10-19T10:46:06;15.48;;;13.88;;
42194;SDS011;27863;49.440;11.102;2023-10-19T10:49:10;18.73;;;13.85;;
42194;SDS011;27863;49.440;11.102;2023-10-19T10:52:11;14.85;;;13.55;;
42194;SDS011;27863;49.440;11.102;2023-10-19T10:55:15;13.77;;;12.57;;
42194;SDS011;27863;49.440;11.102;2023-10-19T10:58:16;13.90;;;12.80;;
42194;SDS011;27863;49.440;11.102;2023-10-19T11:01:32;14.80;;;13.20;;
42194;SDS011;27863;49.440;11.102;2023-10-19T11:04:33;14.82;;;13.52;;
42194;SDS011;27863;49.440;11.102;2023-10-19T11:07:33;13.45;;;12.35;;
42194;SDS011;27863;49.440;11.102;2023-10-19T11:10:34;14.07;;;12.70;;
42194;SDS011;27863;49.440;11.102;2023-10-19T11:13:37;14.85;;;13.55;;
42194;SDS011;27863;49.440;11.102;2023-10-19T11:16:38;13.25;;;12.25;;
42194;SDS011;27863;49.440;11.102;2023-10-19T11:19:43;15.52;;;14.23;;
42194;SDS011;27863;49.440;11.102;2023-10-19T11:22:50;12.95;;;11.95;;
42194;SDS011;27863;49.440;11.102;2023-10-19T11:25:57;13.20;;;11.93;;
42194;SDS011;27863;49.440;11.102;2023-10-19T11:28:59;13.75;;;12.55;;
42194;SDS011;27863;49.440;11.102;2023-10-19T11:32:00;13.48;;;12.18;;
42194;SDS011;27863;49.440;11.102;2023-10-19T11:35:02;12.25;;;11.23;;
42194;SDS011;27863;49.440;11.102;2023-10-19T11:38:03;12.88;;;11.73;;
42194;SDS011;27863;49.440;11.102;2023-10-19T11:41:04;12.88;;;11.82;;
42194;SDS011;27863;49.440;11.102;2023-10-19T11:44:04;12.52;;;11.43;;
42194;SDS011;27863;49.440;11.102;2023-10-19T11:47:05;11.13;;;10.13;;
42194;SDS011;27863;49.440;11.102;2023-10-19T11:50:05;13.02;;;11.88;;
42194;SDS011;27863;49.440;11.102;2023-10-19T11:53:06;13.80;;;11.50;;
42194;SDS011;27863;49.440;11.102;2023-10-19T11:56:11;11.50;;;10.60;;
42194;SDS011;27863;49.440;11.102;2023-10-19T11:59:13;11.70;;;10.70;;
42194;SDS011;27863;49.440;11.102;2023-10-19T12:02:15;11.63;;;10.63;;
42194;SDS011;27863;49.440;11.102;2023-10-19T12:05:18;12.07;;;11.10;;
42194;SDS011;27863;49.440;11.102;2023-10-19T12:08:19;12.07;;;10.88;;
42194;SDS011;27863;49.440;11.102;2023-10-19T12:11:19;12.82;;;11.43;;
42194;SDS011;27863;49.440;11.102;2023-10-19T12:14:22;11.40;;;10.57;;
42194;SDS011;27863;49.440;11.102;2023-10-19T12:17:23;11.48;;;10.52;;
42194;SDS011;27863;49.440;11.102;2023-10-19T12:20:26;11.82;;;10.80;;
42194;SDS011;27863;49.440;11.102;2023-10-19T12:23:26;11.93;;;10.90;;
42194;SDS011;27863;49.440;11.102;2023-10-19T12:26:27;11.98;;;11.00;;
42194;SDS011;27863;49.440;11.102;2023-10-19T12:29:30;12.20;;;11.15;;
42194;SDS011;27863;49.440;11.102;2023-10-19T12:32:31;13.07;;;11.93;;
42194;SDS011;27863;49.440;11.102;2023-10-19T12:35:32;10.30;;;9.40;;
42194;SDS011;27863;49.440;11.102;2023-10-19T12:39:05;11.25;;;10.38;;
42194;SDS011;27863;49.440;11.102;2023-10-19T12:42:06;11.20;;;10.30;;
42194;SDS011;27863;49.440;11.102;2023-10-19T12:45:07;13.93;;;10.18;;
42194;SDS011;27863;49.440;11.102;2023-10-19T12:48:11;10.65;;;9.75;;
42194;SDS011;27863;49.440;11.102;2023-10-19T12:51:11;11.52;;;10.55;;
42194;SDS011;27863;49.440;11.102;2023-10-19T12:54:14;10.02;;;9.23;;
42194;SDS011;27863;49.440;11.102;2023-10-19T12:57:15;12.15;;;11.15;;
42194;SDS011;27863;49.440;11.102;2023-10-19T13:00:17;11.57;;;10.63;;
42194;SDS011;27863;49.440;11.102;2023-10-19T13:03:24;10.60;;;9.80;;
42194;SDS011;27863;49.440;11.102;2023-10-19T13:06:31;11.43;;;10.52;;
42194;SDS011;27863;49.440;11.102;2023-10-19T13:09:33;10.75;;;9.93;;
42194;SDS011;27863;49.440;11.102;2023-10-19T13:12:36;10.15;;;9.35;;
42194;SDS011;27863;49.440;11.102;2023-10-19T13:15:37;10.70;;;9.80;;
42194;SDS011;27863;49.440;11.102;2023-10-19T13:18:38;11.25;;;10.25;;
42194;SDS011;27863;49.440;11.102;2023-10-19T13:21:40;9.82;;;9.13;;
42194;SDS011;27863;49.440;11.102;2023-10-19T13:24:42;11.10;;;10.10;;
42194;SDS011;27863;49.440;11.102;2023-10-19T13:27:45;10.82;;;9.85;;
42194;SDS011;27863;49.440;11.102;2023-10-19T13:30:50;10.15;;;9.45;;
42194;SDS011;27863;49.440;11.102;2023-10-19T13:33:53;10.50;;;9.60;;
42194;SDS011;27863;49.440;11.102;2023-10-19T13:36:54;9.07;;;8.32;;
42194;SDS011;27863;49.440;11.102;2023-10-19T13:39:57;10.07;;;9.07;;
42194;SDS011;27863;49.440;11.102;2023-10-19T13:42:58;11.05;;;10.18;;
42194;SDS011;27863;49.440;11.102;2023-10-19T13:45:59;12.50;;;9.95;;
42194;SDS011;27863;49.440;11.102;2023-10-19T13:49:01;9.30;;;8.60;;
42194;SDS011;27863;49.440;11.102;2023-10-19T13:52:05;10.38;;;9.57;;
42194;SDS011;27863;49.440;11.102;2023-10-19T13:55:08;10.93;;;9.93;;
42194;SDS011;27863;49.440;11.102;2023-10-19T13:58:12;10.95;;;10.05;;
42194;SDS011;27863;49.440;11.102;2023-10-19T14:01:13;11.13;;;10.27;;
42194;SDS011;27863;49.440;11.102;2023-10-19T14:04:13;10.77;;;9.77;;
42194;SDS011;27863;49.440;11.102;2023-10-19T14:07:14;12.00;;;10.73;;
42194;SDS011;27863;49.440;11.102;2023-10-19T14:10:16;11.63;;;10.63;;
42194;SDS011;27863;49.440;11.102;2023-10-19T14:13:19;11.50;;;9.88;;
42194;SDS011;27863;49.440;11.102;2023-10-19T14:16:23;10.15;;;9.35;;
42194;SDS011;27863;49.440;11.102;2023-10-19T14:19:25;11.43;;;10.52;;
42194;SDS011;27863;49.440;11.102;2023-10-19T14:22:26;13.40;;;10.77;;
42194;SDS011;27863;49.440;11.102;2023-10-19T14:25:27;11.93;;;10.93;;
42194;SDS011;27863;49.440;11.102;2023-10-19T14:28:28;10.52;;;9.60;;
42194;SDS011;27863;49.440;11.102;2023-10-19T14:31:31;10.63;;;9.73;;
42194;SDS011;27863;49.440;11.102;2023-10-19T14:34:32;10.48;;;9.70;;
42194;SDS011;27863;49.440;11.102;2023-10-19T14:37:33;12.50;;;11.60;;
42194;SDS011;27863;49.440;11.102;2023-10-19T14:40:34;11.07;;;10.18;;
42194;SDS011;27863;49.440;11.102;2023-10-19T14:43:34;11.40;;;10.50;;
42194;SDS011;27863;49.440;11.102;2023-10-19T14:46:35;11.73;;;10.82;;
42194;SDS011;27863;49.440;11.102;2023-10-19T14:49:36;12.00;;;10.52;;
42194;SDS011;27863;49.440;11.102;2023-10-19T14:52:37;11.10;;;10.20;;
42194;SDS011;27863;49.440;11.102;2023-10-19T14:55:38;12.38;;;11.38;;
42194;SDS011;27863;49.440;11.102;2023-10-19T14:58:39;12.27;;;11.07;;
42194;SDS011;27863;49.440;11.102;2023-10-19T15:01:40;13.85;;;12.60;;
42194;SDS011;27863;49.440;11.102;2023-10-19T15:04:40;12.98;;;11.98;;
42194;SDS011;27863;49.440;11.102;2023-10-19T15:07:44;12.60;;;11.70;;
42194;SDS011;27863;49.440;11.102;2023-10-19T15:10:46;13.13;;;12.13;;
42194;SDS011;27863;49.440;11.102;2023-10-19T15:13:47;13.43;;;12.20;;
42194;SDS011;27863;49.440;11.102;2023-10-19T15:16:48;13.27;;;11.88;;
42194;SDS011;27863;49.440;11.102;2023-10-19T15:19:51;13.38;;;12.23;;
42194;SDS011;27863;49.440;11.102;2023-10-19T15:22:52;13.40;;;12.23;;
42194;SDS011;27863;49.440;11.102;2023-10-19T15:25:56;15.57;;;14.05;;
42194;SDS011;27863;49.440;11.102;2023-10-19T15:28:57;14.70;;;13.40;;
42194;SDS011;27863;49.440;11.102;2023-10-19T15:31:57;15.48;;;14.25;;
42194;SDS011;27863;49.440;11.102;2023-10-19T15:34:58;15.75;;;14.25;;
42194;SDS011;27863;49.440;11.102;2023-10-19T15:37:58;15.52;;;14.18;;
42194;SDS011;27863;49.440;11.102;2023-10-19T15:40:59;18.88;;;15.20;;
42194;SDS011;27863;49.440;11.102;2023-10-19T15:44:02;15.50;;;14.10;;
42194;SDS011;27863;49.440;11.102;2023-10-19T15:47:03;16.65;;;15.35;;
42194;SDS011;27863;49.440;11.102;2023-10-19T15:50:12;15.13;;;13.82;;
42194;SDS011;27863;49.440;11.102;2023-10-19T15:53:13;18.80;;;16.98;;
42194;SDS011;27863;49.440;11.102;2023-10-19T15:56:13;15.43;;;14.20;;
42194;SDS011;27863;49.440;11.102;2023-10-19T15:59:17;16.27;;;14.68;;
42194;SDS011;27863;49.440;11.102;2023-10-19T16:02:18;19.63;;;15.15;;
42194;SDS011;27863;49.440;11.102;2023-10-19T16:05:18;17.98;;;16.38;;
42194;SDS011;27863;49.440;11.102;2023-10-19T16:08:19;17.00;;;15.52;;
42194;SDS011;27863;49.440;11.102;2023-10-19T16:11:20;17.23;;;15.82;;
42194;SDS011;27863;49.440;11.102;2023-10-19T16:14:21;15.50;;;13.88;;
42194;SDS011;27863;49.440;11.102;2023-10-19T16:17:21;17.00;;;15.65;;
42194;SDS011;27863;49.440;11.102;2023-10-19T16:20:22;16.45;;;15.15;;
42194;SDS011;27863;49.440;11.102;2023-10-19T16:23:22;17.85;;;16.27;;
42194;SDS011;27863;49.440;11.102;2023-10-19T16:26:23;17.85;;;16.35;;
42194;SDS011;27863;49.440;11.102;2023-10-19T16:29:24;16.70;;;15.50;;
42194;SDS011;27863;49.440;11.102;2023-10-19T16:32:26;16.10;;;14.60;;
42194;SDS011;27863;49.440;11.102;2023-10-19T16:35:28;16.70;;;15.40;;
42194;SDS011;27863;49.440;11.102;2023-10-19T16:38:29;18.73;;;17.05;;
42194;SDS011;27863;49.440;11.102;2023-10-19T16:41:32;18.08;;;16.15;;
42194;SDS011;27863;49.440;11.102;2023-10-19T16:44:40;17.67;;;15.93;;
42194;SDS011;27863;49.440;11.102;2023-10-19T16:47:40;17.70;;;15.52;;
42194;SDS011;27863;49.440;11.102;2023-10-19T16:50:44;23.92;;;15.38;;
42194;SDS011;27863;49.440;11.102;2023-10-19T16:53:45;17.05;;;15.63;;
42194;SDS011;27863;49.440;11.102;2023-10-19T16:56:46;16.90;;;15.40;;
42194;SDS011;27863;49.440;11.102;2023-10-19T16:59:47;17.67;;;16.17;;
42194;SDS011;27863;49.440;11.102;2023-10-19T17:02:50;15.88;;;14.32;;
42194;SDS011;27863;49.440;11.102;2023-10-19T17:05:51;17.75;;;16.13;;
42194;SDS011;27863;49.440;11.102;2023-10-19T17:08:52;17.07;;;15.77;;
42194;SDS011;27863;49.440;11.102;2023-10-19T17:11:52;16.77;;;15.38;;
42194;SDS011;27863;49.440;11.102;2023-10-19T17:14:54;16.70;;;15.30;;
42194;SDS011;27863;49.440;11.102;2023-10-19T17:17:54;15.65;;;14.27;;
42194;SDS011;27863;49.440;11.102;2023-10-19T17:20:55;18.00;;;16.60;;
42194;SDS011;27863;49.440;11.102;2023-10-19T17:23:56;17.73;;;15.90;;
42194;SDS011;27863;49.440;11.102;2023-10-19T17:26:57;17.10;;;15.50;;
42194;SDS011;27863;49.440;11.102;2023-10-19T17:29:58;16.10;;;14.73;;
42194;SDS011;27863;49.440;11.102;2023-10-19T17:32:58;18.43;;;16.67;;
42194;SDS011;27863;49.440;11.102;2023-10-19T17:35:59;17.67;;;16.17;;
42194;SDS011;27863;49.440;11.102;2023-10-19T17:38:59;17.30;;;15.90;;
42194;SDS011;27863;49.440;11.102;2023-10-19T17:42:00;21.07;;;19.13;;